createdAt,value
2018-07-26T00:00:42.410Z,21.20
2018-07-26T00:03:11.423Z,21.20
2018-07-26T00:05:42.237Z,21.20
2018-07-26T00:10:47.106Z,21.10
2018-07-26T00:13:19.187Z,21.10
2018-07-26T00:15:48.044Z,21.10
2018-07-26T00:18:16.922Z,21.10
2018-07-26T00:20:46.822Z,21.10
2018-07-26T00:23:15.618Z,21.10
2018-07-26T00:28:18.838Z,21.10
2018-07-26T00:30:51.882Z,21.00
2018-07-26T00:33:20.814Z,21.00
2018-07-26T00:35:52.783Z,21.00
2018-07-26T00:38:25.446Z,21.00
2018-07-26T00:40:57.530Z,21.00
2018-07-26T00:43:26.338Z,20.90
2018-07-26T00:45:56.194Z,20.90
2018-07-26T00:48:25.031Z,20.90
2018-07-26T00:50:57.446Z,21.00
2018-07-26T00:53:26.266Z,21.00
2018-07-26T00:55:55.090Z,20.90
2018-07-26T00:58:24.994Z,20.90
2018-07-26T01:00:54.818Z,20.80
2018-07-26T01:03:24.722Z,20.80
2018-07-26T01:05:53.606Z,20.80
2018-07-26T01:08:25.562Z,20.70
2018-07-26T01:10:54.442Z,20.70
2018-07-26T01:13:24.294Z,20.60
2018-07-26T01:15:53.154Z,20.60
2018-07-26T01:18:22.078Z,20.50
2018-07-26T01:20:51.981Z,20.40
2018-07-26T01:23:21.774Z,20.40
2018-07-26T01:25:50.682Z,20.30
2018-07-26T01:28:25.281Z,20.30
2018-07-26T01:30:54.201Z,20.20
2018-07-26T01:33:23.122Z,20.10
2018-07-26T01:35:56.962Z,20.00
2018-07-26T01:41:00.342Z,19.70
2018-07-26T01:43:53.262Z,19.60
2018-07-26T01:46:23.358Z,19.40
2018-07-26T01:48:52.274Z,19.10
2018-07-26T01:51:22.282Z,18.90
2018-07-26T01:53:56.737Z,18.80
2018-07-26T01:56:25.564Z,19.00
2018-07-26T01:58:55.538Z,19.20
2018-07-26T02:01:24.387Z,19.40
2018-07-26T02:03:55.246Z,19.50
2018-07-26T02:06:24.095Z,19.40
2018-07-26T02:08:53.994Z,19.10
2018-07-26T02:11:23.975Z,19.00
2018-07-26T02:13:56.042Z,18.70
2018-07-26T02:16:25.954Z,18.50
2018-07-26T02:18:58.078Z,18.20
2018-07-26T02:21:26.970Z,18.00
2018-07-26T02:24:01.655Z,17.80
2018-07-26T02:26:37.126Z,17.70
2018-07-26T02:29:06.981Z,17.60
2018-07-26T02:31:40.467Z,17.50
2018-07-26T02:34:11.282Z,17.40
2018-07-26T02:41:39.061Z,16.90
2018-07-26T02:44:08.894Z,16.80
2018-07-26T02:46:38.713Z,16.70
2018-07-26T02:49:08.597Z,16.70
2018-07-26T02:51:37.414Z,16.70
2018-07-26T02:54:06.342Z,16.60
2018-07-26T02:56:36.306Z,16.60
2018-07-26T02:59:07.173Z,16.60
2018-07-26T03:01:37.046Z,16.60
2018-07-26T03:04:05.946Z,16.60
2018-07-26T03:06:36.813Z,16.50
2018-07-26T03:09:08.506Z,16.50
2018-07-26T03:11:37.486Z,16.40
2018-07-26T03:14:10.794Z,16.40
2018-07-26T03:16:40.746Z,16.30
2018-07-26T03:19:15.254Z,16.30
2018-07-26T03:21:45.078Z,16.30
2018-07-26T03:24:15.957Z,16.20
2018-07-26T03:26:44.838Z,16.20
2018-07-26T03:29:14.763Z,16.20
2018-07-26T03:31:43.629Z,16.10
2018-07-26T03:34:14.469Z,16.10
2018-07-26T03:36:45.261Z,16.10
2018-07-26T03:39:14.085Z,16.20
2018-07-26T03:41:43.953Z,16.20
2018-07-26T03:44:23.721Z,16.30
2018-07-26T03:46:52.522Z,16.30
2018-07-26T03:49:22.334Z,16.30
2018-07-26T03:51:54.204Z,16.30
2018-07-26T03:54:25.138Z,16.30
2018-07-26T03:56:54.030Z,16.40
2018-07-26T03:59:23.925Z,16.40
2018-07-26T04:01:59.545Z,16.40
2018-07-26T04:04:28.378Z,16.40
2018-07-26T04:06:57.254Z,16.50
2018-07-26T04:09:26.078Z,16.50
2018-07-26T04:12:06.405Z,16.50
2018-07-26T04:14:35.284Z,16.50
2018-07-26T04:19:44.601Z,16.60
2018-07-26T04:22:16.498Z,16.70
2018-07-26T04:24:53.590Z,16.70
2018-07-26T04:27:22.454Z,16.80
2018-07-26T04:32:28.998Z,16.80
2018-07-26T04:35:04.738Z,16.80
2018-07-26T04:37:34.522Z,16.90
2018-07-26T04:40:04.357Z,17.00
2018-07-26T04:42:33.242Z,17.10
2018-07-26T04:45:07.930Z,17.10
2018-07-26T04:47:44.432Z,17.20
2018-07-26T04:50:14.214Z,17.20
2018-07-26T04:52:48.421Z,17.30
2018-07-26T04:55:17.230Z,17.40
2018-07-26T04:57:47.002Z,17.60
2018-07-26T05:00:17.788Z,17.70
2018-07-26T05:02:52.710Z,17.90
2018-07-26T05:05:27.006Z,18.00
2018-07-26T05:07:56.814Z,18.10
2018-07-26T05:10:25.610Z,18.30
2018-07-26T05:12:55.402Z,18.50
2018-07-26T05:15:27.179Z,18.70
2018-07-26T05:18:10.262Z,18.90
2018-07-26T05:20:40.134Z,19.20
2018-07-26T05:23:08.990Z,19.40
2018-07-26T05:25:38.790Z,19.60
2018-07-26T05:28:11.634Z,19.80
2018-07-26T05:30:41.458Z,20.10
2018-07-26T05:33:12.302Z,20.30
2018-07-26T05:35:42.086Z,20.60
2018-07-26T05:38:11.882Z,20.90
2018-07-26T05:43:13.683Z,21.60
2018-07-26T05:45:42.430Z,22.10
2018-07-26T05:48:13.266Z,22.60
2018-07-26T05:50:42.050Z,23.10
2018-07-26T05:53:12.928Z,23.70
2018-07-26T05:55:45.538Z,24.10
2018-07-26T05:58:14.390Z,24.40
2018-07-26T06:00:43.291Z,24.60
2018-07-26T06:03:13.366Z,24.70
2018-07-26T06:05:48.222Z,25.00
2018-07-26T06:08:22.617Z,25.30
2018-07-26T06:10:51.366Z,25.60
2018-07-26T06:13:21.233Z,25.80
2018-07-26T06:15:50.205Z,25.90
2018-07-26T06:18:19.044Z,26.00
2018-07-26T06:20:47.902Z,26.20
2018-07-26T06:23:18.742Z,26.40
2018-07-26T06:25:49.549Z,26.40
2018-07-26T06:28:18.447Z,26.60
2018-07-26T06:30:47.118Z,26.60
2018-07-26T06:33:15.929Z,26.60
2018-07-26T06:35:45.750Z,26.60
2018-07-26T06:38:14.563Z,26.70
2018-07-26T06:40:43.343Z,26.70
2018-07-26T06:43:12.282Z,26.90
2018-07-26T06:45:44.153Z,27.20
2018-07-26T06:48:13.982Z,27.40
2018-07-26T06:50:53.394Z,27.80
2018-07-26T06:53:22.133Z,28.10
2018-07-26T06:55:57.047Z,28.30
2018-07-26T06:58:46.729Z,28.40
2018-07-26T07:01:17.587Z,28.50
2018-07-26T07:03:46.498Z,28.70
2018-07-26T07:06:23.438Z,28.90
2018-07-26T07:08:52.278Z,28.80
2018-07-26T07:11:23.083Z,28.80
2018-07-26T07:13:53.937Z,28.50
2018-07-26T07:18:51.318Z,28.70
2018-07-26T07:21:23.090Z,28.50
2018-07-26T07:23:54.950Z,28.20
2018-07-26T07:26:23.762Z,28.10
2018-07-26T07:31:51.746Z,28.60
2018-07-26T07:34:27.047Z,28.70
2018-07-26T07:37:14.012Z,28.50
2018-07-26T07:39:47.533Z,29.00
2018-07-26T07:42:16.298Z,29.40
2018-07-26T07:44:46.050Z,29.40
2018-07-26T07:47:14.973Z,29.40
2018-07-26T07:49:45.642Z,29.50
2018-07-26T07:52:14.410Z,29.60
2018-07-26T07:54:43.189Z,29.80
2018-07-26T07:57:15.770Z,29.90
2018-07-26T07:59:46.634Z,30.20
2018-07-26T08:02:16.371Z,30.20
2018-07-26T08:04:49.598Z,30.30
2018-07-26T08:07:22.470Z,30.50
2018-07-26T08:09:51.286Z,30.60
2018-07-26T08:12:22.062Z,30.60
2018-07-26T08:14:55.889Z,30.80
2018-07-26T08:17:26.778Z,30.70
2018-07-26T08:19:55.945Z,30.50
2018-07-26T08:22:39.169Z,30.30
2018-07-26T08:25:12.065Z,30.60
2018-07-26T08:27:50.569Z,30.20
2018-07-26T08:30:22.961Z,30.20
2018-07-26T08:32:51.797Z,30.00
2018-07-26T08:35:30.589Z,29.90
2018-07-26T08:37:59.465Z,30.20
2018-07-26T08:40:29.212Z,30.90
2018-07-26T08:42:59.988Z,31.70
2018-07-26T08:45:30.801Z,31.70
2018-07-26T08:48:05.112Z,31.90
2018-07-26T08:50:33.929Z,31.90
2018-07-26T08:53:02.801Z,32.40
2018-07-26T08:55:35.413Z,32.50
2018-07-26T08:58:05.265Z,32.40
2018-07-26T09:00:35.249Z,32.00
2018-07-26T09:05:40.157Z,31.10
2018-07-26T09:08:14.567Z,30.70
2018-07-26T09:10:48.178Z,30.30
2018-07-26T09:13:17.765Z,29.90
2018-07-26T09:15:46.590Z,31.10
2018-07-26T09:18:15.354Z,31.90
2018-07-26T09:20:44.153Z,32.90
2018-07-26T09:23:12.897Z,33.40
2018-07-26T09:25:47.670Z,33.20
2018-07-26T09:28:16.431Z,32.70
2018-07-26T09:30:51.313Z,33.50
2018-07-26T09:35:49.457Z,34.60
2018-07-26T09:38:18.549Z,33.50
2018-07-26T09:40:49.290Z,33.40
2018-07-26T09:43:23.113Z,34.20
2018-07-26T09:45:52.950Z,35.40
2018-07-26T09:48:21.681Z,35.80
2018-07-26T09:50:51.585Z,36.60
2018-07-26T09:53:22.297Z,36.80
2018-07-26T09:55:51.185Z,36.30
2018-07-26T09:58:21.030Z,35.50
2018-07-26T10:00:56.085Z,35.10
2018-07-26T10:03:25.938Z,36.00
2018-07-26T10:06:05.621Z,36.80
2018-07-26T10:08:34.553Z,37.90
2018-07-26T10:13:32.805Z,38.20
2018-07-26T10:16:15.318Z,38.50
2018-07-26T10:18:44.135Z,38.80
2018-07-26T10:21:19.509Z,38.90
2018-07-26T10:23:52.754Z,37.90
2018-07-26T10:26:21.486Z,38.00
2018-07-26T10:28:50.341Z,37.80
2018-07-26T10:31:22.173Z,38.30
2018-07-26T10:33:56.537Z,37.60
2018-07-26T10:36:26.333Z,36.60
2018-07-26T10:39:07.154Z,37.50
2018-07-26T10:41:46.069Z,37.00
2018-07-26T10:44:15.801Z,35.70
2018-07-26T10:46:46.533Z,36.20
2018-07-26T10:49:15.265Z,37.70
2018-07-26T10:51:47.433Z,39.10
2018-07-26T10:59:42.745Z,37.60
2018-07-26T11:02:12.697Z,39.10
2018-07-26T11:04:41.449Z,39.30
2018-07-26T11:07:15.477Z,36.20
2018-07-26T11:09:50.213Z,34.80
2018-07-26T11:12:19.965Z,36.40
2018-07-26T11:15:05.182Z,38.90
2018-07-26T11:17:33.885Z,40.50
2018-07-26T11:20:03.640Z,41.00
2018-07-26T11:22:33.401Z,40.60
2018-07-26T11:25:02.313Z,40.40
2018-07-26T11:27:31.161Z,39.70
2018-07-26T11:30:00.021Z,39.00
2018-07-26T11:32:28.889Z,38.10
2018-07-26T11:34:57.581Z,38.50
2018-07-26T11:37:27.361Z,38.60
2018-07-26T11:39:56.149Z,38.20
2018-07-26T11:42:24.967Z,38.20
2018-07-26T11:44:56.860Z,38.60
2018-07-26T11:47:31.197Z,39.10
2018-07-26T11:50:00.017Z,39.90
2018-07-26T11:52:30.738Z,39.10
2018-07-26T11:55:00.445Z,38.40
2018-07-26T11:59:57.825Z,40.50
2018-07-26T12:02:29.838Z,40.60
2018-07-26T12:05:07.653Z,39.10
2018-07-26T12:07:44.074Z,37.90
2018-07-26T12:10:12.963Z,38.70
2018-07-26T12:12:50.025Z,39.20
2018-07-26T12:15:28.175Z,39.80
2018-07-26T12:18:08.609Z,40.30
2018-07-26T12:20:37.600Z,41.10
2018-07-26T12:23:06.580Z,41.20
2018-07-26T12:25:40.796Z,41.20
2018-07-26T12:30:52.212Z,38.70
2018-07-26T12:33:21.107Z,38.10
2018-07-26T12:35:50.044Z,39.10
2018-07-26T12:38:20.764Z,40.80
2018-07-26T12:40:50.528Z,41.20
2018-07-26T12:43:19.320Z,42.50
2018-07-26T12:45:48.220Z,40.60
2018-07-26T12:48:19.028Z,40.20
2018-07-26T12:50:49.968Z,40.40
2018-07-26T12:55:56.089Z,41.60
2018-07-26T12:58:26.848Z,42.90
2018-07-26T13:01:02.888Z,41.90
2018-07-26T13:03:32.721Z,41.80
2018-07-26T13:06:02.549Z,42.40
2018-07-26T13:08:32.371Z,43.90
2018-07-26T13:11:01.145Z,45.30
2018-07-26T13:13:30.957Z,45.80
2018-07-26T13:15:59.752Z,46.00
2018-07-26T13:18:28.520Z,46.00
2018-07-26T13:20:57.360Z,46.40
2018-07-26T13:23:30.228Z,47.00
2018-07-26T13:26:01.064Z,46.00
2018-07-26T13:28:31.912Z,41.80
2018-07-26T13:31:00.805Z,39.70
2018-07-26T13:33:29.754Z,40.00
2018-07-26T13:35:58.536Z,38.20
2018-07-26T13:38:32.580Z,37.30
2018-07-26T13:41:03.428Z,38.10
2018-07-26T13:43:35.412Z,40.00
2018-07-26T13:46:05.188Z,42.20
2018-07-26T13:48:33.984Z,43.60
2018-07-26T13:51:02.909Z,44.70
2018-07-26T13:53:34.935Z,45.30
2018-07-26T13:56:03.724Z,44.50
2018-07-26T13:58:33.609Z,44.30
2018-07-26T14:03:34.292Z,43.10
2018-07-26T14:06:03.152Z,42.40
2018-07-26T14:08:32.976Z,41.20
2018-07-26T14:11:02.596Z,40.60
2018-07-26T14:13:34.912Z,40.80
2018-07-26T14:16:03.767Z,40.60
2018-07-26T14:18:33.788Z,40.80
2018-07-26T14:21:07.200Z,41.00
2018-07-26T14:23:38.632Z,42.00
2018-07-26T14:26:12.340Z,42.60
2018-07-26T14:28:43.100Z,43.30
2018-07-26T14:31:18.137Z,43.40
2018-07-26T14:33:48.860Z,43.60
2018-07-26T14:36:21.232Z,44.40
2018-07-26T14:38:49.988Z,44.80
2018-07-26T14:41:20.752Z,45.30
2018-07-26T14:44:11.844Z,46.50
2018-07-26T14:46:42.661Z,45.70
2018-07-26T14:49:11.536Z,44.50
2018-07-26T14:54:20.589Z,40.50
2018-07-26T14:56:59.300Z,39.50
2018-07-26T15:02:15.516Z,41.30
2018-07-26T15:04:47.972Z,40.30
2018-07-26T15:07:19.952Z,39.90
2018-07-26T15:12:43.076Z,40.40
2018-07-26T15:15:11.920Z,38.80
2018-07-26T15:20:53.276Z,36.30
2018-07-26T15:23:38.380Z,37.50
2018-07-26T15:26:12.315Z,37.90
2018-07-26T15:28:49.491Z,37.00
2018-07-26T15:31:34.876Z,36.00
2018-07-26T15:34:04.688Z,35.20
2018-07-26T15:36:34.468Z,35.30
2018-07-26T15:39:04.048Z,35.60
2018-07-26T15:41:46.120Z,35.60
2018-07-26T15:44:18.036Z,37.30
2018-07-26T15:46:46.940Z,38.40
2018-07-26T15:49:16.736Z,39.80
2018-07-26T15:51:45.568Z,39.60
2018-07-26T15:54:23.000Z,39.60
2018-07-26T15:56:56.236Z,39.20
2018-07-26T15:59:28.332Z,37.40
2018-07-26T16:01:59.128Z,35.50
2018-07-26T16:04:34.820Z,34.30
2018-07-26T16:07:04.756Z,34.30
2018-07-26T16:09:35.568Z,35.10
2018-07-26T16:12:09.360Z,35.80
2018-07-26T16:14:41.300Z,36.90
2018-07-26T16:19:53.732Z,36.40
2018-07-26T16:22:22.586Z,36.20
2018-07-26T16:24:52.368Z,36.20
2018-07-26T16:27:21.252Z,35.60
2018-07-26T16:29:52.064Z,34.60
2018-07-26T16:32:20.944Z,33.80
2018-07-26T16:34:49.856Z,33.20
2018-07-26T16:37:19.672Z,32.60
2018-07-26T16:39:49.524Z,32.50
2018-07-26T16:42:18.374Z,32.10
2018-07-26T16:44:50.589Z,31.80
2018-07-26T16:47:19.416Z,31.50
2018-07-26T16:49:54.720Z,31.30
2018-07-26T16:52:42.484Z,31.10
2018-07-26T16:55:11.428Z,31.00
2018-07-26T16:57:40.300Z,31.00
2018-07-26T17:00:09.656Z,30.90
2018-07-26T17:02:38.457Z,30.80
2018-07-26T17:05:07.871Z,30.80
2018-07-26T17:07:36.708Z,30.70
2018-07-26T17:10:06.368Z,30.50
2018-07-26T17:12:35.301Z,30.30
2018-07-26T17:15:10.612Z,30.10
2018-07-26T17:17:41.383Z,29.80
2018-07-26T17:20:12.197Z,29.60
2018-07-26T17:22:41.012Z,29.40
2018-07-26T17:25:09.784Z,29.30
2018-07-26T17:27:38.628Z,29.60
2018-07-26T17:30:07.520Z,29.80
2018-07-26T17:32:36.360Z,30.10
2018-07-26T17:35:12.312Z,30.40
2018-07-26T17:37:46.520Z,30.10
2018-07-26T17:40:19.340Z,29.60
2018-07-26T17:42:53.996Z,29.30
2018-07-26T17:45:29.798Z,29.50
2018-07-26T17:48:03.085Z,29.60
2018-07-26T17:50:32.116Z,29.30
2018-07-26T17:53:15.184Z,28.90
2018-07-26T17:55:44.068Z,29.00
2018-07-26T17:58:15.964Z,29.20
2018-07-26T18:00:47.152Z,29.40
2018-07-26T18:03:17.951Z,29.50
2018-07-26T18:05:53.071Z,29.50
2018-07-26T18:08:22.012Z,29.30
2018-07-26T18:10:55.210Z,29.00
2018-07-26T18:13:25.990Z,28.70
2018-07-26T18:15:56.855Z,28.40
2018-07-26T18:18:25.751Z,28.10
2018-07-26T18:20:54.655Z,27.90
2018-07-26T18:23:27.299Z,27.70
2018-07-26T18:28:24.736Z,27.30
2018-07-26T18:30:54.487Z,27.20
2018-07-26T18:33:26.771Z,26.90
2018-07-26T18:35:55.727Z,26.70
2018-07-26T18:38:25.605Z,26.50
2018-07-26T18:40:55.396Z,26.40
2018-07-26T18:43:25.227Z,26.20
2018-07-26T18:46:08.284Z,26.20
2018-07-26T18:48:40.957Z,26.20
2018-07-26T18:51:27.819Z,26.20
2018-07-26T18:53:59.816Z,26.20
2018-07-26T18:56:36.304Z,26.10
2018-07-26T18:59:08.571Z,26.00
2018-07-26T19:01:53.411Z,25.90
2018-07-26T19:04:23.259Z,25.90
2018-07-26T19:06:58.024Z,25.90
2018-07-26T19:09:26.931Z,25.90
2018-07-26T19:11:56.739Z,25.80
2018-07-26T19:14:30.535Z,25.80
2018-07-26T19:16:59.427Z,25.80
2018-07-26T19:19:35.503Z,25.60
2018-07-26T19:22:06.695Z,25.60
2018-07-26T19:24:37.591Z,25.50
2018-07-26T19:27:11.863Z,25.50
2018-07-26T19:29:42.871Z,25.40
2018-07-26T19:32:11.863Z,25.30
2018-07-26T19:34:40.747Z,25.20
2018-07-26T19:37:16.283Z,25.00
2018-07-26T19:39:46.195Z,24.80
2018-07-26T19:42:15.215Z,24.70
2018-07-26T19:44:45.035Z,24.50
2018-07-26T19:47:13.870Z,24.40
2018-07-26T19:49:43.683Z,24.40
2018-07-26T19:52:13.691Z,24.50
2018-07-26T19:54:42.691Z,24.60
2018-07-26T19:57:12.539Z,24.60
2018-07-26T19:59:46.859Z,24.60
2018-07-26T20:02:19.856Z,24.60
2018-07-26T20:04:53.716Z,24.50
2018-07-26T20:07:24.643Z,24.30
2018-07-26T20:09:53.782Z,24.20
2018-07-26T20:12:23.691Z,24.30
2018-07-26T20:15:00.439Z,24.30
2018-07-26T20:17:29.415Z,24.20
2018-07-26T20:20:02.260Z,24.10
2018-07-26T20:22:33.187Z,24.10
2018-07-26T20:25:02.028Z,24.10
2018-07-26T20:27:34.790Z,24.20
2018-07-26T20:30:04.887Z,24.30
2018-07-26T20:32:34.786Z,24.40
2018-07-26T20:35:03.639Z,24.40
2018-07-26T20:37:32.563Z,24.40
2018-07-26T20:40:01.415Z,24.40
2018-07-26T20:42:30.311Z,24.40
2018-07-26T20:44:59.191Z,24.30
2018-07-26T20:47:28.991Z,24.30
2018-07-26T20:49:58.843Z,24.30
2018-07-26T20:52:28.930Z,24.30
2018-07-26T20:55:00.824Z,24.30
2018-07-26T20:57:33.399Z,24.30
2018-07-26T21:00:09.703Z,24.20
2018-07-26T21:02:43.203Z,24.10
2018-07-26T21:05:16.151Z,24.00
2018-07-26T21:07:48.083Z,24.00
2018-07-26T21:10:17.863Z,24.10
2018-07-26T21:12:47.744Z,24.00
2018-07-26T21:15:18.599Z,24.00
2018-07-26T21:17:53.135Z,24.00
2018-07-26T21:20:27.451Z,24.00
2018-07-26T21:22:56.275Z,24.00
2018-07-26T21:25:27.247Z,24.00
2018-07-26T21:27:57.286Z,24.00
2018-07-26T21:30:27.191Z,24.00
2018-07-26T21:32:57.128Z,24.00
2018-07-26T21:35:35.986Z,24.00
2018-07-26T21:38:05.023Z,23.90
2018-07-26T21:40:40.173Z,23.90
2018-07-26T21:43:20.739Z,23.90
2018-07-26T21:45:55.978Z,23.90
2018-07-26T21:48:32.871Z,23.80
2018-07-26T21:51:01.771Z,23.70
2018-07-26T21:53:36.111Z,23.70
2018-07-26T21:56:05.372Z,23.60
2018-07-26T21:58:35.187Z,23.50
2018-07-26T22:01:04.155Z,23.50
2018-07-26T22:03:32.995Z,23.30
2018-07-26T22:06:01.855Z,23.30
2018-07-26T22:08:35.175Z,23.20
2018-07-26T22:11:03.975Z,23.20
2018-07-26T22:13:34.816Z,23.20
2018-07-26T22:16:06.964Z,23.20
2018-07-26T22:18:36.856Z,23.10
2018-07-26T22:21:06.700Z,23.00
2018-07-26T22:23:38.703Z,23.00
2018-07-26T22:26:09.703Z,22.90
2018-07-26T22:28:38.503Z,22.90
2018-07-26T22:31:07.567Z,22.90
2018-07-26T22:33:36.427Z,23.00
2018-07-26T22:36:05.267Z,22.90
2018-07-26T22:38:35.099Z,22.80
2018-07-26T22:41:05.015Z,22.70
2018-07-26T22:43:33.911Z,22.60
2018-07-26T22:46:06.011Z,22.60
2018-07-26T22:48:35.171Z,22.50
2018-07-26T22:51:08.743Z,22.50
2018-07-26T22:53:37.635Z,22.40
2018-07-26T22:56:06.503Z,22.40
2018-07-26T22:58:36.347Z,22.30
2018-07-26T23:01:05.263Z,22.10
2018-07-26T23:03:35.094Z,22.00
2018-07-26T23:06:03.929Z,21.90
2018-07-26T23:08:34.747Z,21.90
2018-07-26T23:13:34.101Z,21.90
2018-07-26T23:16:03.031Z,21.80
2018-07-26T23:18:31.978Z,21.70
2018-07-26T23:21:00.851Z,21.60
2018-07-26T23:23:29.781Z,21.50
2018-07-26T23:25:59.667Z,21.40
2018-07-26T23:28:28.582Z,21.40
2018-07-26T23:30:59.383Z,21.30
2018-07-26T23:33:28.270Z,21.10
2018-07-26T23:35:59.098Z,20.90
2018-07-26T23:38:27.998Z,20.80
2018-07-26T23:40:56.914Z,20.90
2018-07-26T23:43:26.770Z,20.90
2018-07-26T23:45:55.630Z,21.00
2018-07-26T23:48:30.039Z,21.10
2018-07-26T23:50:58.921Z,21.00
2018-07-26T23:53:30.870Z,20.80
2018-07-26T23:55:59.750Z,20.60
2018-07-26T23:58:28.630Z,20.30
